createdAt,value
2023-01-11T00:00:39.164Z,3.70
2023-01-11T00:03:06.966Z,6.90
2023-01-11T00:05:41.497Z,4.65
2023-01-11T00:08:09.333Z,4.22
2023-01-11T00:10:36.961Z,3.08
2023-01-11T00:13:04.518Z,3.88
2023-01-11T00:15:32.419Z,4.15
2023-01-11T00:17:59.553Z,4.05
2023-01-11T00:20:26.586Z,5.30
2023-01-11T00:22:53.577Z,6.88
2023-01-11T00:25:20.540Z,7.78
2023-01-11T00:27:49.558Z,4.07
2023-01-11T00:30:17.875Z,4.82
2023-01-11T00:32:45.367Z,4.80
2023-01-11T00:35:13.143Z,8.35
2023-01-11T00:37:40.714Z,2.67
2023-01-11T00:40:08.889Z,9.02
2023-01-11T00:42:54.525Z,7.93
2023-01-11T00:45:40.113Z,8.63
2023-01-11T00:48:07.675Z,8.98
2023-01-11T00:50:37.753Z,6.32
2023-01-11T00:53:05.812Z,5.43
2023-01-11T00:55:32.916Z,6.88
2023-01-11T00:58:00.925Z,5.70
2023-01-11T01:00:28.999Z,10.65
2023-01-11T01:02:56.247Z,3.47
2023-01-11T01:05:23.574Z,5.20
2023-01-11T01:07:50.666Z,8.43
2023-01-11T01:10:18.427Z,6.43
2023-01-11T01:13:05.225Z,8.97
2023-01-11T01:15:33.245Z,9.93
2023-01-11T01:18:00.454Z,7.57
2023-01-11T01:20:27.523Z,6.15
2023-01-11T01:22:54.507Z,7.80
2023-01-11T01:25:21.483Z,12.90
2023-01-11T01:27:48.817Z,10.75
2023-01-11T01:30:15.952Z,4.88
2023-01-11T01:32:43.101Z,6.03
2023-01-11T01:35:10.197Z,8.60
2023-01-11T01:37:37.307Z,11.02
2023-01-11T01:40:05.078Z,13.45
2023-01-11T01:42:32.074Z,8.27
2023-01-11T01:45:03.343Z,11.38
2023-01-11T01:47:42.469Z,10.43
2023-01-11T01:50:50.490Z,7.78
2023-01-11T01:53:22.865Z,9.07
2023-01-11T01:55:54.908Z,12.75
2023-01-11T01:58:28.855Z,11.93
2023-01-11T02:00:55.810Z,8.77
2023-01-11T02:03:25.713Z,6.80
2023-01-11T02:05:53.671Z,7.18
2023-01-11T02:08:35.578Z,7.07
2023-01-11T02:11:04.080Z,11.50
2023-01-11T02:13:31.913Z,7.65
2023-01-11T02:16:08.328Z,6.68
2023-01-11T02:18:37.564Z,9.75
2023-01-11T02:21:07.519Z,9.23
2023-01-11T02:24:09.533Z,9.93
2023-01-11T02:26:56.100Z,6.82
2023-01-11T02:29:42.335Z,9.10
2023-01-11T02:32:18.605Z,12.30
2023-01-11T02:35:12.979Z,10.48
2023-01-11T02:38:06.545Z,12.90
2023-01-11T02:40:52.898Z,11.95
2023-01-11T02:43:53.444Z,12.95
2023-01-11T02:46:35.315Z,12.15
2023-01-11T02:49:17.473Z,9.88
2023-01-11T02:51:54.555Z,15.23
2023-01-11T02:54:24.175Z,19.52
2023-01-11T02:56:57.137Z,11.20
2023-01-11T02:59:31.984Z,16.45
2023-01-11T03:01:59.798Z,22.42
2023-01-11T03:04:35.758Z,13.23
2023-01-11T03:07:24.310Z,14.10
2023-01-11T03:09:51.212Z,12.75
2023-01-11T03:12:57.270Z,14.57
2023-01-11T03:15:39.364Z,14.27
2023-01-11T03:18:16.822Z,19.33
2023-01-11T03:21:06.240Z,23.25
2023-01-11T03:23:57.843Z,13.07
2023-01-11T03:26:30.808Z,17.20
2023-01-11T03:29:12.893Z,17.15
2023-01-11T03:31:52.346Z,17.95
2023-01-11T03:34:46.712Z,12.80
2023-01-11T03:37:38.596Z,15.57
2023-01-11T03:40:28.936Z,20.13
2023-01-11T03:43:27.358Z,20.38
2023-01-11T03:46:02.849Z,14.80
2023-01-11T03:48:34.996Z,15.27
2023-01-11T03:51:05.614Z,16.02
2023-01-11T03:53:36.978Z,15.55
2023-01-11T03:56:09.855Z,20.50
2023-01-11T03:58:37.174Z,14.85
2023-01-11T04:01:04.713Z,16.30
2023-01-11T04:03:31.747Z,26.05
2023-01-11T04:06:02.802Z,14.07
2023-01-11T04:08:31.278Z,14.10
2023-01-11T04:10:58.351Z,20.88
2023-01-11T04:13:25.299Z,21.60
2023-01-11T04:15:54.316Z,13.57
2023-01-11T04:18:21.393Z,14.18
2023-01-11T04:20:48.417Z,17.48
2023-01-11T04:23:15.436Z,16.45
2023-01-11T04:25:42.512Z,17.65
2023-01-11T04:28:09.525Z,22.65
2023-01-11T04:30:37.269Z,23.27
2023-01-11T04:33:04.340Z,16.23
2023-01-11T04:35:31.360Z,23.40
2023-01-11T04:37:58.717Z,12.75
2023-01-11T04:40:26.230Z,18.35
2023-01-11T04:42:53.263Z,15.10
2023-01-11T04:45:20.358Z,18.33
2023-01-11T04:47:53.263Z,14.88
2023-01-11T04:50:20.393Z,17.52
2023-01-11T04:52:47.371Z,20.25
2023-01-11T04:55:14.381Z,10.82
2023-01-11T04:57:41.389Z,18.83
2023-01-11T05:00:10.981Z,20.63
2023-01-11T05:02:41.508Z,19.08
2023-01-11T05:05:10.163Z,19.95
2023-01-11T05:10:06.736Z,15.68
2023-01-11T05:12:33.859Z,11.97
2023-01-11T05:15:00.803Z,18.40
2023-01-11T05:17:27.813Z,15.02
2023-01-11T05:19:54.817Z,13.55
2023-01-11T05:22:21.876Z,16.20
2023-01-11T05:24:48.956Z,12.68
2023-01-11T05:27:15.917Z,12.43
2023-01-11T05:29:44.187Z,20.60
2023-01-11T05:32:12.298Z,20.55
2023-01-11T05:34:39.348Z,20.55
2023-01-11T05:37:06.498Z,15.32
2023-01-11T05:39:33.714Z,14.48
2023-01-11T05:42:00.674Z,21.27
2023-01-11T05:44:46.051Z,14.15
2023-01-11T05:47:12.991Z,16.77
2023-01-11T05:49:40.388Z,18.13
2023-01-11T05:52:07.326Z,18.52
2023-01-11T05:54:34.341Z,14.85
2023-01-11T05:57:01.302Z,13.93
2023-01-11T05:59:29.842Z,18.23
2023-01-11T06:01:59.119Z,17.65
2023-01-11T06:04:27.530Z,18.50
2023-01-11T06:06:54.633Z,18.08
2023-01-11T06:09:21.612Z,12.18
2023-01-11T06:11:50.549Z,19.58
2023-01-11T06:14:17.618Z,15.70
2023-01-11T06:16:44.627Z,21.02
2023-01-11T06:19:11.743Z,20.25
2023-01-11T06:21:38.973Z,16.80
2023-01-11T06:24:06.213Z,16.95
2023-01-11T06:26:33.296Z,19.88
2023-01-11T06:29:00.310Z,20.25
2023-01-11T06:31:27.333Z,23.63
2023-01-11T06:33:54.322Z,18.25
2023-01-11T06:36:21.323Z,14.75
2023-01-11T06:38:48.257Z,16.90
2023-01-11T06:41:15.957Z,16.90
2023-01-11T06:43:43.072Z,20.27
2023-01-11T06:46:15.691Z,17.10
2023-01-11T06:48:43.735Z,16.67
2023-01-11T06:51:12.090Z,20.55
2023-01-11T06:53:40.807Z,20.13
2023-01-11T06:58:35.292Z,21.20
2023-01-11T07:01:02.523Z,19.58
2023-01-11T07:03:30.019Z,14.82
2023-01-11T07:05:57.561Z,20.67
2023-01-11T07:08:25.870Z,17.25
2023-01-11T07:10:53.060Z,16.70
2023-01-11T07:13:20.236Z,12.43
2023-01-11T07:15:50.081Z,23.00
2023-01-11T07:18:19.061Z,18.42
2023-01-11T07:20:46.245Z,21.80
2023-01-11T07:23:13.324Z,13.75
2023-01-11T07:25:41.244Z,18.73
2023-01-11T07:28:08.977Z,16.58
2023-01-11T07:30:55.431Z,18.52
2023-01-11T07:33:24.792Z,17.60
2023-01-11T07:35:51.770Z,15.80
2023-01-11T07:38:18.825Z,16.67
2023-01-11T07:40:45.840Z,24.52
2023-01-11T07:43:18.420Z,14.55
2023-01-11T07:45:50.842Z,20.70
2023-01-11T07:48:26.082Z,18.80
2023-01-11T07:50:53.494Z,13.27
2023-01-11T07:53:20.730Z,19.00
2023-01-11T07:55:47.844Z,16.30
2023-01-11T07:58:15.562Z,16.15
2023-01-11T08:00:43.153Z,22.10
2023-01-11T08:03:10.413Z,16.77
2023-01-11T08:05:37.837Z,16.45
2023-01-11T08:08:05.616Z,15.18
2023-01-11T08:10:33.058Z,20.02
2023-01-11T08:13:18.693Z,21.63
2023-01-11T08:15:45.998Z,20.98
2023-01-11T08:18:13.293Z,17.75
2023-01-11T08:20:40.954Z,18.67
2023-01-11T08:23:09.803Z,17.90
2023-01-11T08:25:37.797Z,20.33
2023-01-11T08:28:06.637Z,22.30
2023-01-11T08:30:34.014Z,18.55
2023-01-11T08:33:02.011Z,18.48
2023-01-11T08:35:29.955Z,15.00
2023-01-11T08:37:56.952Z,17.08
2023-01-11T08:40:25.635Z,15.30
2023-01-11T08:42:56.858Z,11.93
2023-01-11T08:45:24.389Z,24.15
2023-01-11T08:47:52.211Z,18.25
2023-01-11T08:50:20.256Z,24.52
2023-01-11T08:52:49.587Z,20.38
2023-01-11T08:55:16.824Z,23.20
2023-01-11T08:57:43.769Z,18.27
2023-01-11T09:00:11.490Z,20.33
2023-01-11T09:02:38.511Z,23.23
2023-01-11T09:05:05.971Z,25.90
2023-01-11T09:07:32.913Z,20.83
2023-01-11T09:09:59.864Z,19.77
2023-01-11T09:12:27.718Z,25.23
2023-01-11T09:14:54.768Z,20.38
2023-01-11T09:17:21.772Z,27.70
2023-01-11T09:19:48.864Z,23.05
2023-01-11T09:22:16.228Z,23.48
2023-01-11T09:24:43.401Z,24.42
2023-01-11T09:27:11.899Z,28.27
2023-01-11T09:32:06.346Z,24.48
2023-01-11T09:34:33.399Z,22.52
2023-01-11T09:37:02.752Z,22.05
2023-01-11T09:39:29.906Z,30.15
2023-01-11T09:42:20.751Z,21.98
2023-01-11T09:44:59.728Z,22.63
2023-01-11T09:47:41.308Z,27.60
2023-01-11T09:50:26.609Z,18.98
2023-01-11T09:53:08.249Z,24.40
2023-01-11T09:55:39.985Z,17.60
2023-01-11T09:58:38.565Z,24.13
2023-01-11T10:01:12.458Z,20.55
2023-01-11T10:04:22.437Z,18.23
2023-01-11T10:07:12.507Z,22.33
2023-01-11T10:18:39.239Z,22.58
2023-01-11T10:19:36.475Z,18.38
2023-01-11T10:22:17.021Z,27.42
2023-01-11T10:25:07.553Z,22.20
2023-01-11T10:27:56.811Z,21.45
2023-01-11T10:31:08.040Z,35.80
2023-01-11T10:34:03.796Z,26.60
2023-01-11T10:37:17.092Z,23.35
2023-01-11T10:40:08.015Z,21.42
2023-01-11T10:42:46.860Z,17.35
2023-01-11T10:45:17.019Z,24.55
2023-01-11T10:47:55.180Z,21.45
2023-01-11T10:51:01.727Z,30.45
2023-01-11T10:53:50.077Z,23.10
2023-01-11T10:56:33.606Z,23.27
2023-01-11T10:59:39.574Z,22.77
2023-01-11T11:02:16.698Z,31.65
2023-01-11T11:04:55.648Z,24.58
2023-01-11T11:07:35.781Z,25.75
2023-01-11T11:10:21.905Z,18.20
2023-01-11T11:13:01.121Z,18.02
2023-01-11T11:15:37.140Z,22.30
2023-01-11T11:18:04.723Z,26.63
2023-01-11T11:20:34.203Z,24.67
2023-01-11T11:23:01.714Z,27.13
2023-01-11T11:25:41.443Z,17.48
2023-01-11T11:28:27.087Z,23.85
2023-01-11T11:30:56.877Z,15.00
2023-01-11T11:33:25.347Z,20.50
2023-01-11T11:36:10.080Z,15.32
2023-01-11T11:38:42.520Z,16.95
2023-01-11T11:41:13.254Z,21.58
2023-01-11T11:43:45.706Z,21.65
2023-01-11T11:46:19.244Z,18.48
2023-01-11T11:49:31.994Z,17.50
2023-01-11T11:52:01.177Z,23.65
2023-01-11T11:54:43.249Z,22.40
2023-01-11T11:57:28.034Z,18.05
2023-01-11T12:00:05.725Z,22.65
2023-01-11T12:02:35.379Z,28.80
2023-01-11T12:05:09.127Z,23.85
2023-01-11T12:07:53.873Z,20.23
2023-01-11T12:10:28.013Z,26.30
2023-01-11T12:12:56.193Z,18.10
2023-01-11T12:15:33.921Z,17.75
2023-01-11T12:18:30.560Z,17.48
2023-01-11T12:21:08.312Z,15.25
2023-01-11T12:23:35.271Z,26.70
2023-01-11T12:26:08.031Z,17.98
2023-01-11T12:28:46.899Z,14.93
2023-01-11T12:31:36.931Z,14.70
2023-01-11T12:34:17.840Z,12.82
2023-01-11T12:36:47.552Z,17.67
2023-01-11T12:39:33.146Z,12.35
2023-01-11T12:42:39.163Z,13.75
2023-01-11T12:45:38.685Z,13.63
2023-01-11T12:48:34.048Z,17.25
2023-01-11T12:51:19.165Z,15.82
2023-01-11T12:53:59.923Z,12.38
2023-01-11T12:56:43.206Z,19.17
2023-01-11T12:59:38.046Z,13.63
2023-01-11T13:02:21.072Z,12.65
2023-01-11T13:05:01.141Z,16.25
2023-01-11T13:07:38.997Z,18.77
2023-01-11T13:10:34.895Z,16.30
2023-01-11T13:13:13.762Z,14.57
2023-01-11T13:15:53.811Z,9.23
2023-01-11T13:18:20.758Z,12.55
2023-01-11T13:21:01.244Z,15.90
2023-01-11T13:23:50.172Z,9.63
2023-01-11T13:26:35.766Z,14.52
2023-01-11T13:29:05.077Z,12.30
2023-01-11T13:31:34.892Z,9.35
2023-01-11T13:34:12.618Z,12.55
2023-01-11T13:36:45.755Z,9.20
2023-01-11T13:39:35.095Z,11.40
2023-01-11T13:42:15.867Z,10.85
2023-01-11T13:44:49.733Z,12.73
2023-01-11T13:48:05.135Z,13.40
2023-01-11T13:50:47.407Z,13.20
2023-01-11T13:53:28.476Z,13.80
2023-01-11T13:56:18.517Z,15.98
2023-01-11T13:59:07.695Z,11.43
2023-01-11T14:01:49.643Z,14.65
2023-01-11T14:04:22.377Z,12.70
2023-01-11T14:07:31.089Z,10.02
2023-01-11T14:10:04.124Z,9.70
2023-01-11T14:12:51.719Z,13.25
2023-01-11T14:15:26.570Z,6.77
2023-01-11T14:18:09.369Z,7.15
2023-01-11T14:20:48.976Z,9.73
2023-01-11T14:23:21.732Z,8.32
2023-01-11T14:25:51.439Z,8.85
2023-01-11T14:28:24.298Z,9.50
2023-01-11T14:30:55.230Z,7.65
2023-01-11T14:33:40.057Z,4.68
2023-01-11T14:36:45.310Z,4.63
2023-01-11T14:39:29.180Z,4.80
2023-01-11T14:42:39.406Z,7.70
2023-01-11T14:45:26.792Z,7.10
2023-01-11T14:48:05.524Z,5.38
2023-01-11T14:51:05.718Z,4.75
2023-01-11T14:53:39.690Z,4.53
2023-01-11T14:56:35.616Z,5.05
2023-01-11T14:59:05.636Z,4.32
2023-01-11T15:02:04.888Z,5.57
2023-01-11T15:04:33.269Z,6.32
2023-01-11T15:07:00.543Z,4.93
2023-01-11T15:09:48.894Z,5.25
2023-01-11T15:12:19.798Z,7.78
2023-01-11T15:15:02.442Z,6.43
2023-01-11T15:17:49.544Z,5.40
2023-01-11T15:20:24.260Z,6.72
2023-01-11T15:23:01.618Z,5.88
2023-01-11T15:25:33.928Z,6.32
2023-01-11T15:28:39.097Z,8.00
2023-01-11T15:31:06.757Z,7.75
2023-01-11T15:33:46.881Z,4.73
2023-01-11T15:36:14.315Z,8.05
2023-01-11T15:38:56.493Z,4.15
2023-01-11T15:42:05.354Z,5.30
2023-01-11T15:44:47.070Z,3.58
2023-01-11T15:47:51.611Z,6.38
2023-01-11T15:50:42.926Z,4.70
2023-01-11T15:53:21.960Z,4.25
2023-01-11T15:56:07.805Z,2.50
2023-01-11T15:58:53.360Z,4.68
2023-01-11T16:01:26.300Z,5.80
2023-01-11T16:04:36.121Z,4.22
2023-01-11T16:07:18.108Z,2.35
2023-01-11T16:10:03.821Z,6.13
2023-01-11T16:13:19.777Z,4.00
2023-01-11T16:15:52.647Z,6.80
2023-01-11T16:18:24.561Z,10.77
2023-01-11T16:21:04.760Z,8.27
2023-01-11T16:23:33.573Z,9.00
2023-01-11T16:26:01.647Z,6.22
2023-01-11T16:28:29.129Z,5.70
2023-01-11T16:30:57.932Z,6.07
2023-01-11T16:33:27.536Z,6.80
2023-01-11T16:36:04.600Z,2.95
2023-01-11T16:38:36.853Z,6.63
2023-01-11T16:41:06.764Z,6.88
2023-01-11T16:43:35.912Z,7.38
2023-01-11T16:46:03.487Z,7.50
2023-01-11T16:48:30.511Z,5.47
2023-01-11T16:51:14.332Z,7.22
2023-01-11T16:53:43.659Z,7.30
2023-01-11T16:56:22.202Z,8.40
2023-01-11T17:02:23.462Z,5.80
2023-01-11T17:04:54.265Z,9.23
2023-01-11T17:07:28.008Z,5.47
2023-01-11T17:10:22.743Z,8.85
2023-01-11T17:13:46.212Z,4.82
2023-01-11T17:16:17.060Z,9.05
2023-01-11T17:18:44.489Z,8.07
2023-01-11T17:21:27.171Z,7.47
2023-01-11T17:24:03.428Z,7.43
2023-01-11T17:26:46.361Z,9.18
2023-01-11T17:29:23.665Z,6.18
2023-01-11T17:31:50.771Z,8.25
2023-01-11T17:34:44.304Z,9.23
2023-01-11T17:37:15.992Z,8.85
2023-01-11T17:39:50.120Z,11.13
2023-01-11T17:42:36.550Z,10.05
2023-01-11T17:45:23.912Z,7.25
2023-01-11T17:47:53.161Z,10.38
2023-01-11T17:50:32.762Z,14.18
2023-01-11T17:53:27.343Z,13.82
2023-01-11T17:56:01.226Z,7.72
2023-01-11T17:58:34.892Z,14.23
2023-01-11T18:01:05.199Z,16.17
2023-01-11T18:03:44.529Z,17.48
2023-01-11T18:06:40.544Z,18.73
2023-01-11T18:09:29.095Z,14.82
2023-01-11T18:12:20.858Z,14.25
2023-01-11T18:14:56.570Z,21.63
2023-01-11T18:17:32.609Z,22.02
2023-01-11T18:20:01.153Z,15.18
2023-01-11T18:22:42.792Z,17.10
2023-01-11T18:25:19.785Z,17.48
2023-01-11T18:27:47.296Z,22.00
2023-01-11T18:30:32.617Z,16.35
2023-01-11T18:33:02.182Z,17.60
2023-01-11T18:35:30.065Z,17.77
2023-01-11T18:37:57.143Z,19.70
2023-01-11T18:40:24.143Z,17.60
2023-01-11T18:42:53.265Z,16.98
2023-01-11T18:45:21.931Z,16.65
2023-01-11T18:50:18.710Z,18.17
2023-01-11T18:52:46.656Z,25.02
2023-01-11T18:55:14.556Z,22.35
2023-01-11T18:57:42.475Z,22.33
2023-01-11T19:00:14.060Z,15.70
2023-01-11T19:02:43.234Z,21.42
2023-01-11T19:05:14.627Z,15.40
2023-01-11T19:07:42.193Z,20.05
2023-01-11T19:10:10.906Z,17.67
2023-01-11T19:12:37.935Z,21.08
2023-01-11T19:15:05.311Z,21.38
2023-01-11T19:17:32.623Z,21.40
2023-01-11T19:20:00.272Z,18.13
2023-01-11T19:22:27.251Z,20.80
2023-01-11T19:24:55.197Z,23.70
2023-01-11T19:27:23.054Z,23.48
2023-01-11T19:29:50.117Z,19.35
2023-01-11T19:32:18.502Z,25.00
2023-01-11T19:34:45.611Z,23.05
2023-01-11T19:37:12.609Z,19.45
2023-01-11T19:39:40.216Z,19.92
2023-01-11T19:42:07.232Z,22.45
2023-01-11T19:44:37.034Z,22.33
2023-01-11T19:47:11.696Z,19.00
2023-01-11T19:49:40.472Z,21.23
2023-01-11T19:52:14.457Z,22.30
2023-01-11T19:54:46.132Z,22.70
2023-01-11T19:57:17.821Z,17.27
2023-01-11T19:59:44.938Z,20.55
2023-01-11T20:02:12.921Z,18.13
2023-01-11T20:04:40.783Z,20.45
2023-01-11T20:07:08.821Z,14.82
2023-01-11T20:09:38.780Z,15.27
2023-01-11T20:12:07.477Z,24.48
2023-01-11T20:14:34.810Z,19.60
2023-01-11T20:17:01.941Z,16.35
2023-01-11T20:19:29.073Z,17.40
2023-01-11T20:21:56.568Z,16.92
2023-01-11T20:24:30.182Z,21.75
2023-01-11T20:27:00.384Z,17.88
2023-01-11T20:29:27.469Z,18.67
2023-01-11T20:31:54.459Z,18.80
2023-01-11T20:34:21.611Z,23.83
2023-01-11T20:36:49.091Z,20.55
2023-01-11T20:39:17.505Z,17.80
2023-01-11T20:41:47.725Z,12.35
2023-01-11T20:44:18.139Z,23.52
2023-01-11T20:46:47.806Z,19.75
2023-01-11T20:49:18.497Z,10.20
2023-01-11T20:51:46.747Z,12.60
2023-01-11T20:54:14.224Z,8.82
2023-01-11T20:56:41.856Z,13.55
2023-01-11T20:59:09.615Z,10.35
2023-01-11T21:01:37.406Z,10.90
2023-01-11T21:04:07.352Z,15.98
2023-01-11T21:06:37.784Z,14.13
2023-01-11T21:09:07.028Z,10.07
2023-01-11T21:11:34.195Z,11.80
2023-01-11T21:14:04.251Z,15.45
2023-01-11T21:16:32.303Z,11.60
2023-01-11T21:19:04.312Z,12.90
2023-01-11T21:21:34.255Z,12.77
2023-01-11T21:24:03.640Z,9.60
2023-01-11T21:26:31.858Z,11.85
2023-01-11T21:29:01.150Z,9.23
2023-01-11T21:31:31.080Z,10.25
2023-01-11T21:33:59.354Z,7.57
2023-01-11T21:36:27.701Z,4.88
2023-01-11T21:38:56.849Z,5.20
2023-01-11T21:41:45.142Z,3.53
2023-01-11T21:44:13.456Z,3.17
2023-01-11T21:46:40.926Z,2.20
2023-01-11T21:49:08.671Z,4.68
2023-01-11T21:51:36.192Z,4.67
2023-01-11T21:54:08.534Z,4.85
2023-01-11T21:56:36.207Z,3.75
2023-01-11T21:59:04.100Z,7.30
2023-01-11T22:01:31.213Z,6.63
2023-01-11T22:03:58.347Z,5.70
2023-01-11T22:06:25.391Z,6.28
2023-01-11T22:08:52.716Z,2.95
2023-01-11T22:11:20.465Z,5.47
2023-01-11T22:13:47.454Z,4.63
2023-01-11T22:16:16.805Z,4.35
2023-01-11T22:18:45.041Z,4.15
2023-01-11T22:21:14.829Z,4.15
2023-01-11T22:23:42.192Z,5.30
2023-01-11T22:26:15.757Z,4.53
2023-01-11T22:29:02.241Z,5.80
2023-01-11T22:31:30.485Z,2.92
2023-01-11T22:33:58.471Z,6.05
2023-01-11T22:36:26.409Z,2.65
2023-01-11T22:38:54.173Z,3.08
2023-01-11T22:41:21.942Z,3.70
2023-01-11T22:43:49.686Z,2.30
2023-01-11T22:46:21.844Z,7.80
2023-01-11T22:48:49.094Z,7.78
2023-01-11T22:51:17.810Z,5.45
2023-01-11T22:53:46.722Z,12.43
2023-01-11T22:56:15.430Z,6.07
2023-01-11T23:01:16.837Z,4.40
2023-01-11T23:03:45.326Z,3.55
2023-01-11T23:06:13.184Z,4.97
2023-01-11T23:08:42.819Z,3.75
2023-01-11T23:11:35.948Z,5.85
2023-01-11T23:14:10.050Z,2.72
2023-01-11T23:16:38.049Z,3.05
2023-01-11T23:19:06.771Z,8.23
2023-01-11T23:21:34.442Z,3.78
2023-01-11T23:24:02.522Z,4.23
2023-01-11T23:26:29.992Z,4.93
2023-01-11T23:28:56.934Z,3.30
2023-01-11T23:31:25.776Z,3.95
2023-01-11T23:33:55.126Z,3.40
2023-01-11T23:36:23.889Z,6.25
2023-01-11T23:38:51.423Z,4.78
2023-01-11T23:41:38.937Z,3.15
2023-01-11T23:44:11.611Z,4.97
2023-01-11T23:46:58.613Z,2.13
2023-01-11T23:49:26.914Z,1.73
2023-01-11T23:51:55.076Z,3.95
2023-01-11T23:54:23.096Z,2.35
2023-01-11T23:56:50.083Z,3.28
2023-01-11T23:59:17.083Z,2.67
